Time;durP1;ratioP1;P1;durP2;ratioP2;P2;SDS_P1;SDS_P2;PMS_P1;PMS_P2;Temp;Humidity;BMP_temperature;BMP_pressure;BME280_temperature;BME280_humidity;BME280_pressure;Samples;Min_cycle;Max_cycle;Signal;HPM_P1;HPM_P2
2021/03/20 00:02:20;;;;;;;6.93;3.97;;;-2.00;99.90;;;;;;4978914;28;20306;-56
2021/03/20 00:04:46;;;;;;;6.53;3.90;;;-2.00;99.90;;;;;;5012237;28;20213;-57
2021/03/20 00:07:11;;;;;;;7.03;4.03;;;-2.00;99.90;;;;;;4978653;28;20307;-60
2021/03/20 00:09:37;;;;;;;7.00;3.73;;;-2.00;99.90;;;;;;4978625;28;20181;-58
2021/03/20 00:12:03;;;;;;;4.80;3.67;;;-2.00;99.90;;;;;;4983177;28;20265;-55
2021/03/20 00:14:29;;;;;;;7.30;3.30;;;-2.00;99.90;;;;;;4979356;28;20916;-59
2021/03/20 00:16:55;;;;;;;9.67;4.00;;;-2.00;99.90;;;;;;4982128;28;20216;-57
2021/03/20 00:19:21;;;;;;;6.97;3.80;;;-2.00;99.90;;;;;;4989885;28;20560;-58
2021/03/20 00:21:48;;;;;;;5.20;3.27;;;-2.00;99.90;;;;;;4981633;28;20212;-58
2021/03/20 00:24:14;;;;;;;4.50;2.57;;;-2.00;99.90;;;;;;4981118;28;20841;-53
2021/03/20 00:26:40;;;;;;;3.10;2.80;;;-2.00;99.90;;;;;;4984670;28;20252;-55
2021/03/20 00:29:06;;;;;;;4.87;2.93;;;-2.00;99.90;;;;;;4981085;28;20180;-53
2021/03/20 00:31:32;;;;;;;5.83;3.70;;;-2.00;99.90;;;;;;4985048;28;20300;-56
2021/03/20 00:33:58;;;;;;;6.43;3.47;;;-1.90;99.90;;;;;;4981105;28;20286;-59
2021/03/20 00:36:23;;;;;;;4.27;3.13;;;-1.90;99.90;;;;;;5000263;28;20897;-57
2021/03/20 00:38:49;;;;;;;5.87;3.37;;;-1.90;99.90;;;;;;4987900;28;20646;-59
2021/03/20 00:41:15;;;;;;;6.07;3.20;;;-1.90;99.90;;;;;;4999892;28;20204;-56
2021/03/20 00:43:40;;;;;;;5.87;3.33;;;-1.80;99.90;;;;;;5005998;28;20185;-57
2021/03/20 00:46:08;;;;;;;6.27;3.40;;;-1.80;99.90;;;;;;4986251;28;20197;-53
2021/03/20 00:48:37;;;;;;;3.43;3.13;;;-1.70;99.90;;;;;;4983516;28;20215;-55
2021/03/20 00:51:04;;;;;;;4.13;3.43;;;-1.70;99.90;;;;;;5003670;28;20217;-57
2021/03/20 00:53:31;;;;;;;5.43;3.03;;;-1.70;99.90;;;;;;4996000;28;20182;-57
2021/03/20 00:55:56;;;;;;;5.27;2.67;;;-1.70;99.90;;;;;;4984509;28;20186;-57
2021/03/20 00:58:31;;;;;;;7.37;3.53;;;-1.70;99.90;;;;;;5005261;28;20259;-56
2021/03/20 01:01:07;;;;;;;4.57;2.83;;;-1.70;99.90;;;;;;5004159;28;20294;-58
2021/03/20 01:03:33;;;;;;;3.07;2.57;;;-1.70;99.90;;;;;;4992390;28;20208;-55
2021/03/20 01:05:59;;;;;;;8.13;2.97;;;-1.70;99.90;;;;;;4992760;28;20177;-59
2021/03/20 01:08:25;;;;;;;5.77;2.80;;;-1.80;99.90;;;;;;4987873;28;20670;-54
2021/03/20 01:10:51;;;;;;;3.57;2.67;;;-1.80;99.90;;;;;;4984198;28;20256;-55
2021/03/20 01:13:18;;;;;;;4.87;3.20;;;-1.80;99.90;;;;;;4984422;28;20177;-58
2021/03/20 01:15:45;;;;;;;4.47;3.00;;;-1.90;99.90;;;;;;4986911;28;20205;-57
2021/03/20 01:18:12;;;;;;;7.27;3.60;;;-1.90;99.90;;;;;;5001610;28;20204;-56
2021/03/20 01:20:38;;;;;;;8.27;3.63;;;-1.90;99.90;;;;;;4982659;28;20283;-56
2021/03/20 01:23:04;;;;;;;5.53;3.93;;;-2.00;99.90;;;;;;4998846;28;20215;-55
2021/03/20 01:25:31;;;;;;;7.03;4.20;;;-2.00;99.90;;;;;;5007983;28;20173;-54
2021/03/20 01:27:57;;;;;;;7.73;3.70;;;-2.00;99.90;;;;;;5004066;28;20208;-58
2021/03/20 01:30:30;;;;;;;6.37;4.03;;;-2.10;99.90;;;;;;5004108;28;20716;-58
2021/03/20 01:32:56;;;;;;;6.83;3.83;;;-2.10;99.90;;;;;;4987030;28;20204;-56
2021/03/20 01:35:21;;;;;;;5.67;3.43;;;-2.10;99.90;;;;;;4976326;28;20197;-57
2021/03/20 01:37:48;;;;;;;6.00;3.60;;;-2.10;99.90;;;;;;4994998;28;20254;-57
2021/03/20 01:40:18;;;;;;;7.83;3.63;;;-2.00;99.90;;;;;;5001044;28;20172;-59
2021/03/20 01:42:45;;;;;;;4.73;3.00;;;-2.00;99.90;;;;;;4985170;28;20170;-60
2021/03/20 01:45:16;;;;;;;4.00;3.10;;;-2.00;99.90;;;;;;4982656;28;20248;-53
2021/03/20 01:47:55;;;;;;;4.37;3.23;;;-1.90;99.90;;;;;;5001887;28;20708;-60
2021/03/20 01:50:32;;;;;;;3.80;2.53;;;-1.90;99.90;;;;;;4980241;28;20196;-56
2021/03/20 01:53:04;;;;;;;7.30;3.30;;;-1.90;99.90;;;;;;4997309;28;20181;-56
2021/03/20 01:55:30;;;;;;;4.13;2.77;;;-1.80;99.90;;;;;;4993431;28;20244;-55
2021/03/20 01:58:00;;;;;;;5.60;3.07;;;-1.80;99.90;;;;;;4984133;28;20204;-58
2021/03/20 02:00:28;;;;;;;5.10;3.23;;;-1.80;99.90;;;;;;5003363;28;20180;-57
2021/03/20 02:02:54;;;;;;;6.30;3.23;;;-1.80;99.90;;;;;;4988656;28;20285;-58
2021/03/20 02:05:24;;;;;;;5.90;3.53;;;-1.70;99.90;;;;;;4995566;28;20311;-57
2021/03/20 02:07:51;;;;;;;4.33;2.77;;;-1.70;99.90;;;;;;4996656;28;20358;-58
2021/03/20 02:10:16;;;;;;;4.90;2.77;;;-1.60;99.90;;;;;;4983045;28;20165;-59
2021/03/20 02:12:45;;;;;;;4.40;2.67;;;-1.60;99.90;;;;;;4981152;28;20204;-55
2021/03/20 02:15:40;;;;;;;3.00;2.47;;;-1.60;99.90;;;;;;4983076;28;20189;-58
2021/03/20 02:18:19;;;;;;;5.60;3.30;;;-1.60;99.90;;;;;;5002780;28;20215;-58
2021/03/20 02:20:56;;;;;;;4.80;3.10;;;-1.50;99.90;;;;;;4973378;28;20315;-58
2021/03/20 02:23:59;;;;;;;7.40;3.37;;;-1.50;99.90;;;;;;5000323;28;20250;-54
2021/03/20 02:27:15;;;;;;;4.10;2.50;;;-1.50;99.90;;;;;;4981959;28;20174;-57
2021/03/20 02:30:05;;;;;;;3.50;2.63;;;-1.40;99.90;;;;;;4988003;28;20279;-59
2021/03/20 02:32:41;;;;;;;4.80;2.70;;;-1.40;99.90;;;;;;4980883;28;20772;-56
2021/03/20 02:35:39;;;;;;;2.93;2.07;;;-1.30;99.90;;;;;;4991328;28;20191;-57
2021/03/20 02:38:33;;;;;;;4.60;2.73;;;-1.30;99.90;;;;;;4993644;28;20235;-54
2021/03/20 02:41:26;;;;;;;3.73;2.10;;;-1.20;99.90;;;;;;4990108;28;20748;-57
2021/03/20 02:43:59;;;;;;;4.63;2.30;;;-1.20;99.90;;;;;;4986281;28;20165;-53
2021/03/20 02:46:37;;;;;;;2.70;2.13;;;-1.20;99.90;;;;;;4981220;28;20197;-59
2021/03/20 02:49:17;;;;;;;3.40;2.00;;;-1.10;99.90;;;;;;4984593;28;20253;-55
2021/03/20 02:51:50;;;;;;;2.77;2.30;;;-1.10;99.90;;;;;;4972863;28;23764;-58
2021/03/20 02:54:39;;;;;;;3.27;2.30;;;-1.10;99.90;;;;;;4992405;28;20212;-60
2021/03/20 02:57:11;;;;;;;3.83;2.53;;;-1.10;99.90;;;;;;4992670;28;20231;-55
2021/03/20 02:59:41;;;;;;;4.03;3.17;;;-1.10;99.90;;;;;;4987830;28;20248;-54
2021/03/20 03:02:11;;;;;;;4.33;2.30;;;-1.10;99.90;;;;;;4984006;28;20291;-56
2021/03/20 03:04:58;;;;;;;4.50;2.30;;;-1.10;99.90;;;;;;4980796;28;20924;-50
2021/03/20 03:07:48;;;;;;;2.93;2.63;;;-1.00;99.90;;;;;;4973178;28;20270;-60
2021/03/20 03:10:27;;;;;;;2.60;2.40;;;-1.00;99.90;;;;;;5002383;28;20697;-57
2021/03/20 03:12:59;;;;;;;6.00;2.57;;;-1.00;99.90;;;;;;5005223;28;20753;-57
2021/03/20 03:15:36;;;;;;;4.00;3.00;;;-1.00;99.90;;;;;;4999941;28;20184;-56
2021/03/20 03:18:10;;;;;;;4.93;2.70;;;-1.00;99.90;;;;;;5003485;28;20681;-57
2021/03/20 03:20:43;;;;;;;5.47;3.20;;;-1.00;99.90;;;;;;4999740;28;20906;-57
2021/03/20 03:23:36;;;;;;;4.57;2.20;;;-1.00;99.90;;;;;;5002739;28;20228;-56
2021/03/20 03:26:24;;;;;;;3.67;2.40;;;-1.00;99.90;;;;;;5004888;28;20239;-58
2021/03/20 03:28:53;;;;;;;3.80;2.47;;;-1.00;99.90;;;;;;4984719;28;20182;-55
2021/03/20 03:31:39;;;;;;;5.70;2.53;;;-0.90;99.90;;;;;;4983787;28;20189;-58
2021/03/20 03:34:12;;;;;;;4.53;2.17;;;-0.90;99.90;;;;;;4984848;28;20629;-57
2021/03/20 03:37:00;;;;;;;3.23;2.00;;;-1.00;99.90;;;;;;4980613;28;20379;-58
2021/03/20 03:39:36;;;;;;;4.53;1.93;;;-0.90;99.90;;;;;;4980620;28;20219;-59
2021/03/20 03:42:02;;;;;;;2.97;2.43;;;-0.90;99.90;;;;;;4997057;28;20755;-57
2021/03/20 03:44:28;;;;;;;3.17;2.00;;;-0.90;99.90;;;;;;4981088;28;20169;-57
2021/03/20 03:46:54;;;;;;;4.53;2.27;;;-0.90;99.90;;;;;;4985485;28;20240;-56
2021/03/20 03:49:24;;;;;;;3.80;2.50;;;-0.80;99.90;;;;;;4982755;28;20570;-60
2021/03/20 03:51:50;;;;;;;3.97;2.00;;;-0.90;99.90;;;;;;4984557;28;20185;-55
2021/03/20 03:54:16;;;;;;;4.80;2.17;;;-0.80;99.90;;;;;;4977210;28;20181;-55
2021/03/20 03:57:21;;;;;;;3.07;1.90;;;-0.80;99.90;;;;;;4988141;28;20220;-57
2021/03/20 04:00:09;;;;;;;3.17;1.77;;;-0.80;99.90;;;;;;4981808;28;20212;-57
2021/03/20 04:03:08;;;;;;;1.73;1.57;;;-0.80;99.90;;;;;;4981106;28;20177;-57
2021/03/20 04:06:04;;;;;;;4.03;1.57;;;-0.80;99.90;;;;;;4979290;28;20185;-55
2021/03/20 04:08:56;;;;;;;3.20;2.00;;;-0.80;99.90;;;;;;4992217;28;20219;-54
2021/03/20 04:11:33;;;;;;;1.67;1.53;;;-0.80;99.90;;;;;;4985237;28;20243;-58
2021/03/20 04:14:12;;;;;;;3.57;1.67;;;-0.80;99.90;;;;;;4989880;28;20192;-50
2021/03/20 04:17:03;;;;;;;2.23;1.60;;;-0.80;99.90;;;;;;4982822;28;20212;-52
2021/03/20 04:19:56;;;;;;;4.93;1.87;;;-0.80;99.90;;;;;;4997195;28;20197;-51
2021/03/20 04:22:35;;;;;;;2.50;1.50;;;-0.80;99.90;;;;;;5003436;28;20605;-56
2021/03/20 04:25:40;;;;;;;2.40;1.73;;;-0.80;99.90;;;;;;5005527;28;20197;-54
2021/03/20 04:28:23;;;;;;;3.17;1.50;;;-0.80;99.90;;;;;;5002713;28;20236;-56
2021/03/20 04:30:58;;;;;;;3.13;1.90;;;-0.80;99.90;;;;;;5000744;28;20186;-53
2021/03/20 04:33:31;;;;;;;2.83;1.60;;;-0.80;99.90;;;;;;4983688;28;20391;-55
2021/03/20 04:36:06;;;;;;;3.93;1.77;;;-0.80;99.90;;;;;;4991883;28;20197;-56
2021/03/20 04:38:32;;;;;;;2.57;1.60;;;-0.80;99.90;;;;;;4989204;28;20260;-57
2021/03/20 04:41:05;;;;;;;3.70;1.80;;;-0.80;99.90;;;;;;4975580;28;20232;-58
2021/03/20 04:43:33;;;;;;;5.30;1.83;;;-0.80;99.90;;;;;;5009435;28;20168;-58
2021/03/20 04:46:07;;;;;;;2.67;1.70;;;-0.80;99.90;;;;;;5005819;28;20661;-56
2021/03/20 04:48:36;;;;;;;1.77;1.40;;;-0.80;99.90;;;;;;4994216;28;20212;-56
2021/03/20 04:51:14;;;;;;;1.90;1.70;;;-0.80;99.90;;;;;;5006189;28;20271;-56
2021/03/20 04:53:40;;;;;;;3.07;1.60;;;-0.80;99.90;;;;;;5004074;28;20243;-57
2021/03/20 04:56:14;;;;;;;2.40;1.43;;;-0.80;99.90;;;;;;4988429;28;20642;-57
2021/03/20 04:58:50;;;;;;;1.67;1.30;;;-0.80;99.90;;;;;;4983978;28;20211;-57
2021/03/20 05:01:22;;;;;;;2.40;1.47;;;-0.80;99.90;;;;;;4992430;28;20689;-56
2021/03/20 05:03:56;;;;;;;2.00;1.60;;;-0.80;99.90;;;;;;4983465;28;20173;-53
2021/03/20 05:06:24;;;;;;;2.03;1.27;;;-0.80;99.90;;;;;;4987872;28;20272;-55
2021/03/20 05:08:59;;;;;;;2.73;1.60;;;-0.80;99.90;;;;;;5004659;28;20184;-52
2021/03/20 05:11:32;;;;;;;2.10;1.63;;;-0.80;99.90;;;;;;5003391;28;20267;-57
2021/03/20 05:14:04;;;;;;;4.70;1.73;;;-0.80;99.90;;;;;;4991547;28;20204;-54
2021/03/20 05:16:46;;;;;;;2.67;1.40;;;-0.80;99.90;;;;;;5001469;28;20802;-53
2021/03/20 05:19:12;;;;;;;2.43;1.80;;;-0.80;99.90;;;;;;5000758;28;20271;-58
2021/03/20 05:21:41;;;;;;;1.57;1.30;;;-0.80;99.90;;;;;;4981042;28;21012;-54
2021/03/20 05:24:11;;;;;;;2.87;1.60;;;-0.80;99.90;;;;;;5003991;28;20201;-53
2021/03/20 05:26:37;;;;;;;1.43;1.00;;;-0.80;99.90;;;;;;5001686;28;21046;-55
2021/03/20 05:29:03;;;;;;;3.33;1.60;;;-0.80;99.90;;;;;;4990340;28;20272;-52
2021/03/20 05:31:31;;;;;;;6.03;1.50;;;-0.80;99.90;;;;;;4997616;28;20188;-56
2021/03/20 05:33:57;;;;;;;1.80;1.20;;;-0.80;99.90;;;;;;4985664;28;20554;-54
2021/03/20 05:36:22;;;;;;;2.53;1.50;;;-0.80;99.90;;;;;;4982386;28;20177;-56
2021/03/20 05:38:48;;;;;;;3.57;1.67;;;-0.80;99.90;;;;;;4992116;28;20199;-57
2021/03/20 05:41:35;;;;;;;2.60;1.20;;;-0.80;99.90;;;;;;5003176;28;20317;-57
2021/03/20 05:44:32;;;;;;;2.40;1.33;;;-0.80;99.90;;;;;;4986695;28;20181;-54
2021/03/20 05:47:06;;;;;;;2.27;1.20;;;-0.70;99.90;;;;;;5000135;28;20208;-57
2021/03/20 05:50:09;;;;;;;2.20;1.47;;;-0.70;99.90;;;;;;4992173;28;20168;-56
2021/03/20 05:52:55;;;;;;;3.60;1.47;;;-0.70;99.90;;;;;;4996278;28;20203;-54
2021/03/20 05:55:45;;;;;;;2.70;1.47;;;-0.60;99.90;;;;;;5003540;28;20276;-57
2021/03/20 05:58:37;;;;;;;3.43;1.40;;;-0.60;99.90;;;;;;5005740;28;20196;-58
2021/03/20 06:01:51;;;;;;;2.47;1.60;;;-0.60;99.90;;;;;;4987859;28;20233;-53
2021/03/20 06:04:25;;;;;;;2.63;1.27;;;-0.60;99.90;;;;;;5013908;28;20197;-59
2021/03/20 06:06:54;;;;;;;4.73;1.20;;;-0.60;99.90;;;;;;4986461;28;20211;-54
2021/03/20 06:09:42;;;;;;;3.53;1.90;;;-0.50;99.90;;;;;;4997897;28;20361;-55
2021/03/20 06:12:26;;;;;;;2.00;1.10;;;-0.50;99.90;;;;;;5003124;28;20181;-52
2021/03/20 06:15:08;;;;;;;6.23;1.37;;;-0.50;99.90;;;;;;4996596;28;20185;-53
2021/03/20 06:17:48;;;;;;;3.43;1.10;;;-0.50;99.90;;;;;;4991879;28;20206;-54
2021/03/20 06:20:44;;;;;;;4.60;1.67;;;-0.50;99.90;;;;;;4996297;28;20200;-58
2021/03/20 06:23:45;;;;;;;3.97;1.20;;;-0.40;99.90;;;;;;4992258;28;20193;-57
2021/03/20 06:26:15;;;;;;;4.47;1.23;;;-0.40;99.90;;;;;;4996515;28;20522;-58
2021/03/20 06:28:58;;;;;;;1.00;0.80;;;-0.40;99.90;;;;;;5009945;28;20224;-54
2021/03/20 06:31:34;;;;;;;1.30;1.00;;;-0.40;99.90;;;;;;4985716;28;21310;-52
2021/03/20 06:34:33;;;;;;;2.20;1.07;;;-0.40;99.90;;;;;;4990202;28;20243;-55
2021/03/20 06:37:16;;;;;;;2.50;1.20;;;-0.30;99.90;;;;;;4997452;28;20345;-57
2021/03/20 06:39:50;;;;;;;3.10;1.20;;;-0.30;99.90;;;;;;4999099;28;20190;-51
2021/03/20 06:42:20;;;;;;;1.20;0.90;;;-0.20;99.90;;;;;;5001537;28;20227;-53
2021/03/20 06:44:48;;;;;;;2.33;1.00;;;-0.10;99.90;;;;;;5004916;28;20190;-52
2021/03/20 06:47:19;;;;;;;2.47;1.30;;;-0.20;99.90;;;;;;4980699;28;20723;-58
2021/03/20 06:49:55;;;;;;;2.60;0.87;;;-0.10;99.90;;;;;;5002334;28;20192;-54
2021/03/20 06:52:22;;;;;;;2.20;0.90;;;-0.10;99.90;;;;;;5001592;28;20684;-52
2021/03/20 06:54:58;;;;;;;1.53;0.87;;;0.00;99.90;;;;;;5001942;28;20200;-50
2021/03/20 06:57:24;;;;;;;1.17;0.87;;;0.00;99.90;;;;;;4997494;28;20298;-54
2021/03/20 06:59:53;;;;;;;3.43;0.90;;;0.10;99.90;;;;;;5005038;28;20189;-55
2021/03/20 07:02:39;;;;;;;4.27;1.13;;;0.10;99.90;;;;;;4990702;28;20779;-54
2021/03/20 07:05:25;;;;;;;4.73;1.00;;;0.20;99.90;;;;;;4994386;28;20193;-57
2021/03/20 07:08:31;;;;;;;2.07;0.97;;;0.20;99.90;;;;;;5005482;28;20321;-52
2021/03/20 07:10:57;;;;;;;2.37;1.07;;;0.20;99.90;;;;;;4997301;28;20276;-58
2021/03/20 07:13:42;;;;;;;2.27;1.00;;;0.30;99.90;;;;;;5002335;28;20339;-55
2021/03/20 07:16:17;;;;;;;3.87;0.80;;;0.30;99.90;;;;;;5003161;28;20195;-57
2021/03/20 07:18:47;;;;;;;2.97;0.90;;;0.40;99.90;;;;;;4993795;28;20201;-55
2021/03/20 07:21:41;;;;;;;3.67;1.10;;;0.40;99.90;;;;;;4997593;28;20207;-57
2021/03/20 07:24:28;;;;;;;2.77;1.37;;;0.50;99.90;;;;;;4990479;28;20189;-54
2021/03/20 07:27:12;;;;;;;2.67;1.10;;;0.60;99.90;;;;;;4994692;28;20212;-52
2021/03/20 07:29:59;;;;;;;1.30;1.00;;;0.60;99.90;;;;;;4998695;28;20185;-58
2021/03/20 07:32:25;;;;;;;5.10;1.53;;;0.70;99.90;;;;;;4997271;28;20185;-58
2021/03/20 07:34:54;;;;;;;3.30;0.97;;;0.80;99.90;;;;;;4989976;28;20325;-57
2021/03/20 07:37:20;;;;;;;2.30;1.13;;;0.90;99.90;;;;;;4985564;28;20199;-57
2021/03/20 07:39:49;;;;;;;4.47;1.20;;;0.90;99.90;;;;;;4978372;28;20994;-57
2021/03/20 07:42:26;;;;;;;3.80;1.03;;;1.00;99.90;;;;;;4988413;28;20205;-57
2021/03/20 07:44:58;;;;;;;2.47;0.70;;;1.00;99.90;;;;;;4999565;28;20172;-53
2021/03/20 07:47:28;;;;;;;2.40;0.80;;;1.10;99.90;;;;;;5002680;28;20206;-59
2021/03/20 07:50:20;;;;;;;1.30;0.90;;;1.10;99.90;;;;;;4986209;28;20185;-57
2021/03/20 07:52:59;;;;;;;2.20;0.80;;;1.10;99.90;;;;;;4997792;28;20223;-56
2021/03/20 07:55:25;;;;;;;2.80;0.67;;;1.20;99.90;;;;;;4999671;28;20201;-57
2021/03/20 07:57:59;;;;;;;1.20;0.70;;;1.20;99.90;;;;;;4998320;28;20276;-53
2021/03/20 08:00:47;;;;;;;1.37;0.70;;;1.30;99.90;;;;;;5000525;28;20193;-54
2021/03/20 08:03:19;;;;;;;1.67;0.90;;;1.30;99.90;;;;;;5007370;28;20193;-48
2021/03/20 08:05:45;;;;;;;4.17;1.00;;;1.40;99.90;;;;;;4989028;28;20897;-49
2021/03/20 08:08:25;;;;;;;4.10;1.00;;;1.40;99.90;;;;;;4990184;28;20203;-49
2021/03/20 08:10:52;;;;;;;3.00;0.97;;;1.40;99.90;;;;;;4984466;28;20228;-53
2021/03/20 08:13:40;;;;;;;3.47;0.93;;;1.50;99.90;;;;;;4999513;28;20186;-51
2021/03/20 08:16:06;;;;;;;3.60;1.00;;;1.50;99.90;;;;;;5002259;28;20184;-51
2021/03/20 08:18:37;;;;;;;6.10;0.80;;;1.60;99.90;;;;;;5003492;28;20254;-53
2021/03/20 08:21:22;;;;;;;5.30;1.07;;;1.60;99.90;;;;;;4974307;28;20225;-54
2021/03/20 08:24:20;;;;;;;1.83;0.80;;;1.60;99.90;;;;;;4993667;28;20206;-56
2021/03/20 08:26:46;;;;;;;1.97;0.80;;;1.60;99.90;;;;;;4989623;28;20210;-55
2021/03/20 08:29:25;;;;;;;2.10;0.90;;;1.70;99.90;;;;;;4996794;28;20696;-53
2021/03/20 08:32:13;;;;;;;2.13;0.87;;;1.70;99.90;;;;;;5002060;28;20201;-53
2021/03/20 08:35:17;;;;;;;2.37;1.10;;;1.70;99.90;;;;;;5006533;28;20704;-51
2021/03/20 08:38:01;;;;;;;2.23;0.63;;;1.80;99.90;;;;;;4999998;28;20662;-55
2021/03/20 08:40:39;;;;;;;1.53;0.80;;;1.90;99.90;;;;;;4984140;28;20206;-49
2021/03/20 08:43:43;;;;;;;3.40;0.90;;;2.00;99.90;;;;;;5003688;28;20186;-54
2021/03/20 08:46:20;;;;;;;1.70;0.60;;;2.00;99.90;;;;;;4995951;28;20207;-55
2021/03/20 08:48:59;;;;;;;2.00;0.97;;;2.00;99.90;;;;;;5001456;28;20186;-51
2021/03/20 08:51:39;;;;;;;2.27;0.80;;;2.10;99.90;;;;;;4986398;28;20879;-49
2021/03/20 08:54:43;;;;;;;2.77;0.90;;;2.10;99.90;;;;;;4992310;28;20186;-53
2021/03/20 08:57:13;;;;;;;1.97;0.90;;;2.10;99.90;;;;;;4987484;28;20205;-53
2021/03/20 08:59:52;;;;;;;1.97;0.70;;;2.20;99.90;;;;;;4997997;28;20246;-54
2021/03/20 09:02:20;;;;;;;5.30;0.90;;;2.30;99.90;;;;;;4994448;28;20209;-55
2021/03/20 09:05:15;;;;;;;2.17;0.77;;;2.30;99.90;;;;;;4997396;28;20195;-54
2021/03/20 09:08:10;;;;;;;2.43;0.90;;;2.40;99.90;;;;;;4990520;28;20293;-55
2021/03/20 09:10:41;;;;;;;1.70;0.97;;;2.30;99.90;;;;;;5005820;28;20195;-54
2021/03/20 09:13:12;;;;;;;1.80;0.90;;;2.40;99.90;;;;;;4997769;28;20187;-54
2021/03/20 09:15:39;;;;;;;2.63;0.80;;;2.40;99.90;;;;;;5000414;28;20190;-53
2021/03/20 09:18:05;;;;;;;1.20;0.93;;;2.50;99.90;;;;;;4999272;28;20206;-54
2021/03/20 09:20:45;;;;;;;2.30;0.70;;;2.50;99.90;;;;;;5002277;28;20188;-54
2021/03/20 09:23:24;;;;;;;4.63;0.90;;;2.60;99.90;;;;;;4986852;28;20207;-54
2021/03/20 09:25:57;;;;;;;1.17;0.90;;;2.60;99.90;;;;;;4992005;28;20192;-52
2021/03/20 09:28:29;;;;;;;2.60;0.97;;;2.80;99.90;;;;;;4980683;28;20311;-54
2021/03/20 09:31:01;;;;;;;2.60;0.90;;;2.80;99.90;;;;;;4987900;28;20195;-55
2021/03/20 09:33:26;;;;;;;2.40;0.93;;;2.80;99.90;;;;;;5003371;28;20184;-55
2021/03/20 09:35:58;;;;;;;2.67;1.17;;;2.80;99.60;;;;;;5000552;28;20198;-51
2021/03/20 09:38:36;;;;;;;1.90;0.90;;;2.80;99.50;;;;;;4988708;28;20219;-54
2021/03/20 09:41:28;;;;;;;3.53;1.57;;;2.80;99.80;;;;;;5002927;28;20211;-54
2021/03/20 09:43:59;;;;;;;1.37;0.83;;;2.90;98.20;;;;;;4997569;28;20200;-57
2021/03/20 09:46:39;;;;;;;0.70;0.70;;;3.00;99.90;;;;;;4990643;28;20267;-56
2021/03/20 09:49:08;;;;;;;1.47;0.73;;;3.10;99.90;;;;;;4991510;28;20529;-59
2021/03/20 09:51:52;;;;;;;1.37;1.07;;;3.10;99.60;;;;;;4993014;28;20278;-57
2021/03/20 09:54:25;;;;;;;3.70;1.27;;;3.10;99.00;;;;;;4987911;28;20456;-53
2021/03/20 09:56:55;;;;;;;2.97;0.90;;;3.10;98.90;;;;;;4991422;28;20199;-56
2021/03/20 09:59:31;;;;;;;3.40;1.20;;;3.10;99.80;;;;;;5002581;28;20222;-56
2021/03/20 10:02:19;;;;;;;2.47;1.00;;;3.10;99.30;;;;;;4999783;28;20207;-54
2021/03/20 10:05:04;;;;;;;3.00;1.00;;;3.20;99.30;;;;;;5007813;28;20223;-55
2021/03/20 10:07:35;;;;;;;4.10;1.17;;;3.40;99.00;;;;;;4991140;28;20215;-55
2021/03/20 10:10:10;;;;;;;2.07;0.90;;;3.50;99.70;;;;;;4984402;28;20216;-52
2021/03/20 10:12:42;;;;;;;1.20;0.90;;;3.60;98.20;;;;;;4984310;28;20226;-56
2021/03/20 10:15:14;;;;;;;1.63;1.13;;;3.70;98.20;;;;;;4995401;28;20201;-53
2021/03/20 10:18:01;;;;;;;1.43;1.20;;;3.70;98.10;;;;;;4993029;28;20870;-51
2021/03/20 10:20:41;;;;;;;2.27;1.47;;;3.80;98.30;;;;;;4982798;28;20212;-54
2021/03/20 10:23:42;;;;;;;2.87;1.30;;;3.80;97.20;;;;;;4973853;28;20201;-54
2021/03/20 10:26:32;;;;;;;1.70;1.40;;;3.90;98.60;;;;;;5001226;28;20184;-51
2021/03/20 10:29:02;;;;;;;1.47;1.23;;;3.90;97.80;;;;;;4985262;28;20313;-52
2021/03/20 10:31:35;;;;;;;3.87;1.57;;;3.80;98.80;;;;;;5003986;28;20172;-55
2021/03/20 10:34:15;;;;;;;2.67;1.50;;;3.80;98.50;;;;;;4999329;28;20268;-54
2021/03/20 10:36:43;;;;;;;3.27;1.57;;;3.80;99.20;;;;;;4994020;28;20264;-51
2021/03/20 10:39:34;;;;;;;2.20;1.40;;;3.90;99.20;;;;;;4992100;28;20212;-53
2021/03/20 10:42:32;;;;;;;5.13;1.93;;;3.90;98.40;;;;;;5001718;28;20200;-52
2021/03/20 10:45:00;;;;;;;2.97;2.07;;;4.00;99.60;;;;;;4997872;28;20198;-52
2021/03/20 10:47:34;;;;;;;1.97;1.77;;;4.00;99.50;;;;;;4990993;28;20215;-49
2021/03/20 10:50:19;;;;;;;1.90;1.67;;;4.10;99.90;;;;;;4981006;28;20669;-55
2021/03/20 10:52:45;;;;;;;1.20;1.10;;;4.10;99.90;;;;;;4993059;28;20235;-54
2021/03/20 10:55:20;;;;;;;4.90;1.90;;;4.00;99.90;;;;;;4970687;28;20201;-54
2021/03/20 10:57:46;;;;;;;4.60;1.97;;;4.10;99.90;;;;;;5002870;28;20195;-53
2021/03/20 11:00:23;;;;;;;3.00;1.97;;;4.20;99.90;;;;;;4989272;28;20192;-56
2021/03/20 11:02:49;;;;;;;2.70;1.67;;;4.40;99.90;;;;;;4992934;28;20231;-57
2021/03/20 11:05:20;;;;;;;2.53;1.63;;;4.60;99.90;;;;;;4996257;28;20176;-55
2021/03/20 11:07:47;;;;;;;2.00;1.80;;;4.50;99.90;;;;;;4994610;28;20259;-57
2021/03/20 11:10:14;;;;;;;3.80;1.83;;;4.60;99.90;;;;;;4975908;28;20391;-56
2021/03/20 11:12:40;;;;;;;4.33;2.10;;;4.70;99.90;;;;;;4988652;28;20180;-52
2021/03/20 11:15:06;;;;;;;3.40;2.23;;;4.80;99.90;;;;;;4986908;28;20299;-55
2021/03/20 11:17:33;;;;;;;4.43;1.93;;;4.80;99.90;;;;;;4984592;28;20794;-52
2021/03/20 11:20:19;;;;;;;2.33;1.60;;;4.90;99.90;;;;;;4982275;28;20688;-55
2021/03/20 11:22:45;;;;;;;3.27;2.40;;;5.10;99.90;;;;;;4998213;28;20646;-57
2021/03/20 11:25:26;;;;;;;4.27;2.03;;;5.20;99.90;;;;;;4985816;28;20500;-56
2021/03/20 11:28:26;;;;;;;5.03;2.20;;;5.30;99.90;;;;;;4991844;28;20234;-56
2021/03/20 11:30:55;;;;;;;2.27;2.00;;;5.10;99.90;;;;;;4999767;28;20567;-54
2021/03/20 11:33:24;;;;;;;3.23;1.97;;;5.10;99.90;;;;;;4992860;28;20188;-56
2021/03/20 11:35:54;;;;;;;2.63;1.83;;;5.00;99.90;;;;;;4997463;28;20185;-56
2021/03/20 11:38:22;;;;;;;2.37;2.17;;;5.10;99.90;;;;;;4985243;28;20295;-56
2021/03/20 11:41:03;;;;;;;3.33;2.57;;;5.10;99.90;;;;;;4987793;28;20276;-56
2021/03/20 11:43:37;;;;;;;2.17;1.97;;;5.00;99.90;;;;;;5000775;28;21501;-52
2021/03/20 11:46:07;;;;;;;4.23;1.70;;;5.00;99.90;;;;;;5008370;28;20962;-54
2021/03/20 11:48:42;;;;;;;2.30;2.10;;;5.10;99.90;;;;;;5003332;28;20201;-57
2021/03/20 11:51:25;;;;;;;2.30;2.10;;;5.10;99.90;;;;;;4994034;28;20192;-53
2021/03/20 11:53:54;;;;;;;3.13;2.43;;;5.10;99.90;;;;;;4983251;28;20896;-52
2021/03/20 11:56:40;;;;;;;2.70;2.23;;;5.20;99.90;;;;;;4984264;28;20185;-56
2021/03/20 11:59:28;;;;;;;3.87;2.27;;;5.40;99.90;;;;;;4993834;28;20229;-55
2021/03/20 12:01:54;;;;;;;3.90;2.20;;;5.50;99.90;;;;;;4986956;28;20847;-56
2021/03/20 12:04:26;;;;;;;3.27;2.40;;;5.50;99.90;;;;;;5003776;28;20177;-55
2021/03/20 12:07:21;;;;;;;3.63;2.47;;;5.50;99.90;;;;;;4994772;28;20343;-54
2021/03/20 12:09:47;;;;;;;2.80;2.53;;;5.30;99.90;;;;;;4991748;28;20185;-53
2021/03/20 12:12:13;;;;;;;2.73;2.50;;;5.20;99.90;;;;;;4986535;28;20189;-55
2021/03/20 12:14:47;;;;;;;5.00;2.80;;;5.20;99.90;;;;;;5000264;28;20184;-57
2021/03/20 12:17:24;;;;;;;4.00;2.80;;;5.30;99.90;;;;;;4998585;28;20209;-53
2021/03/20 12:20:07;;;;;;;3.73;2.93;;;5.30;99.90;;;;;;4994314;28;20176;-52
2021/03/20 12:22:46;;;;;;;6.77;2.17;;;5.30;99.90;;;;;;4993580;28;20652;-57
2021/03/20 12:25:19;;;;;;;2.80;2.60;;;5.30;99.90;;;;;;4994389;28;20197;-52
2021/03/20 12:27:47;;;;;;;6.60;3.27;;;5.20;99.90;;;;;;4977390;28;20200;-57
2021/03/20 12:30:32;;;;;;;3.93;2.83;;;5.30;99.90;;;;;;4999822;28;20169;-51
2021/03/20 12:33:09;;;;;;;3.43;3.07;;;5.30;99.90;;;;;;4995159;28;20189;-55
2021/03/20 12:35:35;;;;;;;5.73;3.07;;;5.30;99.90;;;;;;4998882;28;20196;-53
2021/03/20 12:38:14;;;;;;;3.40;2.70;;;5.30;99.90;;;;;;4996995;28;20220;-56
2021/03/20 12:40:43;;;;;;;3.37;2.83;;;5.30;99.90;;;;;;4994955;28;20601;-56
2021/03/20 12:43:18;;;;;;;6.17;3.37;;;5.30;99.90;;;;;;4984293;28;20197;-51
2021/03/20 12:45:44;;;;;;;3.93;3.10;;;5.30;99.90;;;;;;5000843;28;20188;-52
2021/03/20 12:48:12;;;;;;;3.87;2.77;;;5.40;99.90;;;;;;4994963;28;20211;-53
2021/03/20 12:50:38;;;;;;;2.80;2.60;;;5.40;99.90;;;;;;4996468;28;20205;-57
2021/03/20 12:53:05;;;;;;;5.93;3.10;;;5.40;99.90;;;;;;5003961;28;20220;-54
2021/03/20 12:55:31;;;;;;;6.23;3.33;;;5.30;99.90;;;;;;5000544;28;20193;-54
2021/03/20 12:57:56;;;;;;;3.80;3.20;;;5.30;99.90;;;;;;4981663;28;20200;-51
2021/03/20 13:00:22;;;;;;;4.23;3.00;;;5.40;99.90;;;;;;4999491;28;20641;-55
2021/03/20 13:02:48;;;;;;;4.23;3.30;;;5.40;99.90;;;;;;5000269;28;20804;-55
2021/03/20 13:05:25;;;;;;;5.13;2.90;;;5.40;99.90;;;;;;4999173;28;20185;-54
2021/03/20 13:07:52;;;;;;;5.27;3.17;;;5.50;99.90;;;;;;5002550;28;20282;-54
2021/03/20 13:10:18;;;;;;;5.10;3.10;;;5.50;99.90;;;;;;4994467;28;20188;-57
2021/03/20 13:12:44;;;;;;;5.23;3.30;;;5.50;99.90;;;;;;4992652;28;20189;-50
2021/03/20 13:15:10;;;;;;;7.77;4.03;;;5.50;99.90;;;;;;4982963;28;20681;-56
2021/03/20 13:17:35;;;;;;;5.03;3.20;;;5.40;99.90;;;;;;5002412;28;20213;-55
2021/03/20 13:20:01;;;;;;;3.93;3.40;;;5.40;99.90;;;;;;4993158;28;20188;-55
2021/03/20 13:22:27;;;;;;;4.90;3.83;;;5.40;99.90;;;;;;5001177;28;20865;-53
2021/03/20 13:24:52;;;;;;;4.60;3.27;;;5.50;99.90;;;;;;4997273;28;20181;-55
2021/03/20 13:27:18;;;;;;;3.10;2.80;;;5.50;99.90;;;;;;4995943;28;20615;-57
2021/03/20 13:29:44;;;;;;;3.93;3.40;;;5.50;99.90;;;;;;4985237;28;20315;-50
2021/03/20 13:32:10;;;;;;;3.70;3.27;;;5.40;99.90;;;;;;5002773;28;20537;-56
2021/03/20 13:34:35;;;;;;;6.43;3.33;;;5.40;99.90;;;;;;4990304;28;20444;-54
2021/03/20 13:37:01;;;;;;;4.27;3.50;;;5.50;99.90;;;;;;5006636;28;20243;-55